createdAt,value
2023-03-16T00:00:22.673Z,101946.75
2023-03-16T00:02:52.025Z,101946.06
2023-03-16T00:05:20.519Z,101945.44
2023-03-16T00:07:48.638Z,101949.91
2023-03-16T00:10:16.960Z,101954.38
2023-03-16T00:12:45.124Z,101950.91
2023-03-16T00:15:13.327Z,101961.50
2023-03-16T00:17:41.204Z,101962.34
2023-03-16T00:20:12.233Z,101959.84
2023-03-16T00:22:40.219Z,101958.22
2023-03-16T00:25:09.109Z,101970.53
2023-03-16T00:27:37.114Z,101966.22
2023-03-16T00:30:06.268Z,101969.81
2023-03-16T00:32:36.618Z,101965.59
2023-03-16T00:35:09.265Z,101961.28
2023-03-16T00:37:39.819Z,101960.41
2023-03-16T00:40:09.870Z,101966.59
2023-03-16T00:42:37.937Z,101970.19
2023-03-16T00:45:07.009Z,101963.94
2023-03-16T00:47:35.818Z,101968.31
2023-03-16T00:50:04.120Z,101969.31
2023-03-16T00:52:32.338Z,101971.13
2023-03-16T00:55:03.667Z,101964.06
2023-03-16T00:57:32.081Z,101966.69
2023-03-16T01:00:00.387Z,101973.78
2023-03-16T01:02:28.303Z,101965.13
2023-03-16T01:04:56.269Z,101969.53
2023-03-16T01:07:24.316Z,101973.94
2023-03-16T01:09:52.338Z,101962.59
2023-03-16T01:12:21.900Z,101959.06
2023-03-16T01:14:49.874Z,101962.59
2023-03-16T01:17:18.923Z,101960.91
2023-03-16T01:19:47.889Z,101955.72
2023-03-16T01:22:18.564Z,101957.44
2023-03-16T01:24:46.827Z,101954.81
2023-03-16T01:27:15.768Z,101947.84
2023-03-16T01:29:45.374Z,101959.31
2023-03-16T01:32:14.297Z,101954.97
2023-03-16T01:34:42.311Z,101954.88
2023-03-16T01:37:10.325Z,101946.97
2023-03-16T01:39:38.267Z,101949.53
2023-03-16T01:42:06.497Z,101946.06
2023-03-16T01:44:55.221Z,101949.72
2023-03-16T01:47:24.115Z,101944.53
2023-03-16T01:49:55.772Z,101949.69
2023-03-16T01:52:26.743Z,101947.13
2023-03-16T01:54:58.267Z,101959.50
2023-03-16T01:57:30.617Z,101954.22
2023-03-16T02:00:09.098Z,101960.38
2023-03-16T02:02:39.995Z,101956.06
2023-03-16T02:05:13.911Z,101949.84
2023-03-16T02:07:45.583Z,101945.44
2023-03-16T02:10:16.677Z,101949.06
2023-03-16T02:12:45.737Z,101945.53
2023-03-16T02:15:16.422Z,101945.59
2023-03-16T02:17:45.872Z,101936.84
2023-03-16T02:20:26.579Z,101938.59
2023-03-16T02:22:55.496Z,101929.00
2023-03-16T02:25:25.716Z,101922.81
2023-03-16T02:28:02.473Z,101926.34
2023-03-16T02:30:32.319Z,101929.84
2023-03-16T02:33:00.415Z,101916.59
2023-03-16T02:35:28.495Z,101927.13
2023-03-16T02:37:56.441Z,101924.53
2023-03-16T02:40:27.410Z,101927.22
2023-03-16T02:43:03.235Z,101925.44
2023-03-16T02:45:39.455Z,101933.34
2023-03-16T02:48:15.149Z,101929.00
2023-03-16T02:50:51.021Z,101921.03
2023-03-16T02:53:19.381Z,101920.13
2023-03-16T02:55:47.469Z,101919.16
2023-03-16T02:58:15.976Z,101925.25
2023-03-16T03:00:46.567Z,101926.16
2023-03-16T03:03:14.972Z,101927.78
2023-03-16T03:05:42.838Z,101929.47
2023-03-16T03:08:10.722Z,101922.47
2023-03-16T03:10:38.619Z,101933.88
2023-03-16T03:13:07.813Z,101930.47
2023-03-16T03:15:35.761Z,101931.34
2023-03-16T03:18:05.673Z,101940.13
2023-03-16T03:20:34.048Z,101938.38
2023-03-16T03:23:04.371Z,101942.84
2023-03-16T03:25:34.893Z,101950.78
2023-03-16T03:28:05.555Z,101937.59
2023-03-16T03:30:33.939Z,101943.78
2023-03-16T03:33:02.780Z,101939.44
2023-03-16T03:35:32.374Z,101930.66
2023-03-16T03:38:00.287Z,101936.78
2023-03-16T03:40:28.339Z,101935.91
2023-03-16T03:42:56.887Z,101933.25
2023-03-16T03:45:24.777Z,101935.19
2023-03-16T03:47:52.772Z,101936.94
2023-03-16T03:50:21.287Z,101943.13
2023-03-16T03:52:51.378Z,101943.97
2023-03-16T03:55:19.430Z,101944.00
2023-03-16T03:57:47.599Z,101945.84
2023-03-16T04:00:16.820Z,101946.69
2023-03-16T04:02:44.980Z,101944.97
2023-03-16T04:05:13.139Z,101937.97
2023-03-16T04:07:41.398Z,101937.03
2023-03-16T04:10:12.008Z,101936.91
2023-03-16T04:12:40.107Z,101943.13
2023-03-16T04:15:08.863Z,101936.19
2023-03-16T04:17:36.690Z,101936.25
2023-03-16T04:20:10.695Z,101929.19
2023-03-16T04:22:38.554Z,101931.81
2023-03-16T04:25:06.833Z,101932.75
2023-03-16T04:27:36.848Z,101931.00
2023-03-16T04:30:06.112Z,101924.00
2023-03-16T04:32:34.143Z,101924.09
2023-03-16T04:35:02.009Z,101936.41
2023-03-16T04:37:29.956Z,101934.63
2023-03-16T04:39:57.911Z,101928.50
2023-03-16T04:42:25.853Z,101927.56
2023-03-16T04:44:56.237Z,101923.09
2023-03-16T04:47:24.297Z,101934.47
2023-03-16T04:49:52.176Z,101937.13
2023-03-16T04:52:20.910Z,101930.13
2023-03-16T04:54:48.873Z,101934.56
2023-03-16T04:57:19.458Z,101923.16
2023-03-16T04:59:47.392Z,101925.63
2023-03-16T05:02:16.968Z,101931.72
2023-03-16T05:04:45.202Z,101921.03
2023-03-16T05:07:13.277Z,101921.88
2023-03-16T05:09:41.744Z,101918.50
2023-03-16T05:12:10.983Z,101915.91
2023-03-16T05:14:39.576Z,101918.50
2023-03-16T05:17:07.802Z,101914.03
2023-03-16T05:19:37.111Z,101910.53
2023-03-16T05:22:05.029Z,101912.22
2023-03-16T05:24:33.073Z,101915.09
2023-03-16T05:27:03.630Z,101907.94
2023-03-16T05:29:32.249Z,101917.44
2023-03-16T05:32:00.484Z,101908.63
2023-03-16T05:34:28.676Z,101914.81
2023-03-16T05:36:58.244Z,101920.09
2023-03-16T05:39:26.416Z,101925.34
2023-03-16T05:41:55.307Z,101930.53
2023-03-16T05:44:23.592Z,101930.50
2023-03-16T05:46:51.684Z,101933.16
2023-03-16T05:49:19.741Z,101944.56
2023-03-16T05:51:47.976Z,101934.84
2023-03-16T05:54:17.297Z,101940.97
2023-03-16T05:56:45.266Z,101939.03
2023-03-16T05:59:13.097Z,101946.00
2023-03-16T06:01:41.206Z,101941.56
2023-03-16T06:04:09.870Z,101940.66
2023-03-16T06:06:37.799Z,101937.88
2023-03-16T06:09:05.780Z,101943.19
2023-03-16T06:11:36.495Z,101942.25
2023-03-16T06:14:05.275Z,101937.78
2023-03-16T06:16:34.243Z,101940.31
2023-03-16T06:19:02.769Z,101936.63
2023-03-16T06:21:31.128Z,101938.41
2023-03-16T06:23:59.391Z,101934.06
2023-03-16T06:26:27.497Z,101930.41
2023-03-16T06:28:56.827Z,101936.56
2023-03-16T06:31:24.845Z,101939.00
2023-03-16T06:33:52.967Z,101953.00
2023-03-16T06:36:21.702Z,101946.69
2023-03-16T06:38:49.726Z,101952.81
2023-03-16T06:41:18.298Z,101960.66
2023-03-16T06:43:46.577Z,101958.75
2023-03-16T06:46:15.954Z,101957.78
2023-03-16T06:48:43.959Z,101956.81
2023-03-16T06:51:11.916Z,101963.03
2023-03-16T06:53:41.424Z,101960.13
2023-03-16T06:56:09.546Z,101959.19
2023-03-16T06:58:37.637Z,101952.06
2023-03-16T07:01:07.137Z,101953.78
2023-03-16T07:03:36.557Z,101958.41
2023-03-16T07:06:04.601Z,101967.09
2023-03-16T07:08:32.518Z,101966.84
2023-03-16T07:11:00.434Z,101964.16
2023-03-16T07:13:28.514Z,101962.38
2023-03-16T07:15:56.390Z,101961.41
2023-03-16T07:18:26.035Z,101961.31
2023-03-16T07:20:55.911Z,101966.44
2023-03-16T07:23:24.673Z,101963.56
2023-03-16T07:25:52.933Z,101966.16
2023-03-16T07:28:21.142Z,101966.59
2023-03-16T07:31:02.963Z,101967.25
2023-03-16T07:33:32.598Z,101967.69
2023-03-16T07:36:04.503Z,101973.00
2023-03-16T07:38:33.585Z,101962.19
2023-03-16T07:41:01.713Z,101969.44
2023-03-16T07:43:30.320Z,101974.41
2023-03-16T07:45:58.369Z,101974.59
2023-03-16T07:48:26.746Z,101972.41
2023-03-16T07:50:55.120Z,101968.69
2023-03-16T07:53:24.509Z,101970.25
2023-03-16T07:55:52.380Z,101972.81
2023-03-16T07:58:20.294Z,101969.03
2023-03-16T08:00:48.285Z,101971.69
2023-03-16T08:03:16.275Z,101971.19
2023-03-16T08:05:44.151Z,101973.94
2023-03-16T08:08:12.054Z,101969.47
2023-03-16T08:10:41.649Z,101981.53
2023-03-16T08:13:09.597Z,101973.94
2023-03-16T08:15:37.642Z,101976.16
2023-03-16T08:18:07.118Z,101978.59
2023-03-16T08:20:35.472Z,101969.47
2023-03-16T08:23:06.073Z,101968.72
2023-03-16T08:25:34.274Z,101970.44
2023-03-16T08:28:04.618Z,101973.53
2023-03-16T08:30:33.259Z,101968.91
2023-03-16T08:33:03.262Z,101971.56
2023-03-16T08:35:31.415Z,101954.13
2023-03-16T08:37:59.879Z,101955.25
2023-03-16T08:40:29.903Z,101953.66
2023-03-16T08:42:58.164Z,101954.25
2023-03-16T08:45:28.033Z,101949.25
2023-03-16T08:47:56.146Z,101956.69
2023-03-16T08:50:25.340Z,101938.16
2023-03-16T08:52:53.617Z,101945.06
2023-03-16T08:55:21.720Z,101939.91
2023-03-16T08:57:49.950Z,101937.50
2023-03-16T09:00:20.471Z,101933.38
2023-03-16T09:02:50.163Z,101927.06
2023-03-16T09:05:18.554Z,101935.50
2023-03-16T09:07:48.909Z,101929.41
2023-03-16T09:10:17.574Z,101927.44
2023-03-16T09:12:48.712Z,101925.63
2023-03-16T09:15:16.935Z,101919.56
2023-03-16T09:17:45.883Z,101926.56
2023-03-16T09:20:22.813Z,101923.78
2023-03-16T09:22:54.648Z,101915.97
2023-03-16T09:25:25.561Z,101909.38
2023-03-16T09:27:53.852Z,101915.72
2023-03-16T09:30:22.118Z,101916.41
2023-03-16T09:32:50.533Z,101906.56
2023-03-16T09:35:20.288Z,101914.16
2023-03-16T09:38:04.797Z,101912.84
2023-03-16T09:40:36.078Z,101913.22
2023-03-16T09:43:27.637Z,101909.91
2023-03-16T09:46:07.687Z,101910.59
2023-03-16T09:48:38.726Z,101901.69
2023-03-16T09:51:25.215Z,101902.47
2023-03-16T09:54:00.351Z,101909.38
2023-03-16T09:56:33.583Z,101896.91
2023-03-16T09:59:03.278Z,101894.69
2023-03-16T10:01:39.855Z,101898.38
2023-03-16T10:04:21.437Z,101896.66
2023-03-16T10:06:59.116Z,101895.84
2023-03-16T10:09:35.902Z,101894.31
2023-03-16T10:12:08.789Z,101891.91
2023-03-16T10:14:45.930Z,101881.50
2023-03-16T10:17:19.318Z,101885.50
2023-03-16T10:19:52.653Z,101877.81
2023-03-16T10:22:26.806Z,101879.47
2023-03-16T10:25:03.693Z,101882.28
2023-03-16T10:27:36.685Z,101878.59
2023-03-16T10:30:21.355Z,101875.22
2023-03-16T10:32:50.839Z,101881.69
2023-03-16T10:35:42.954Z,101870.59
2023-03-16T10:38:30.683Z,101867.78
2023-03-16T10:40:58.948Z,101872.22
2023-03-16T10:43:27.940Z,101863.06
2023-03-16T10:46:02.354Z,101860.31
2023-03-16T10:48:34.264Z,101856.78
2023-03-16T10:51:09.372Z,101860.97
2023-03-16T10:53:42.926Z,101853.88
2023-03-16T10:56:13.867Z,101848.91
2023-03-16T10:58:54.401Z,101848.16
2023-03-16T11:01:26.975Z,101844.91
2023-03-16T11:03:57.169Z,101846.16
2023-03-16T11:06:30.679Z,101837.16
2023-03-16T11:09:08.756Z,101844.22
2023-03-16T11:11:38.910Z,101841.44
2023-03-16T11:14:15.277Z,101832.06
2023-03-16T11:16:47.817Z,101830.69
2023-03-16T11:19:20.864Z,101810.63
2023-03-16T11:21:55.126Z,101801.81
2023-03-16T11:24:30.590Z,101809.47
2023-03-16T11:27:06.112Z,101806.56
2023-03-16T11:29:45.714Z,101804.00
2023-03-16T11:32:20.854Z,101801.47
2023-03-16T11:34:49.326Z,101802.09
2023-03-16T11:37:31.831Z,101801.81
2023-03-16T11:40:14.320Z,101805.00
2023-03-16T11:42:54.881Z,101800.84
2023-03-16T11:45:33.884Z,101794.78
2023-03-16T11:48:34.573Z,101779.72
2023-03-16T11:51:10.803Z,101789.91
2023-03-16T11:53:53.091Z,101787.75
2023-03-16T11:56:33.054Z,101767.00
2023-03-16T11:59:24.448Z,101768.81
2023-03-16T12:02:07.301Z,101768.88
2023-03-16T12:04:55.584Z,101770.84
2023-03-16T12:07:41.119Z,101769.38
2023-03-16T12:10:25.066Z,101759.28
2023-03-16T12:13:03.821Z,101756.72
2023-03-16T12:15:38.583Z,101744.56
2023-03-16T12:18:18.395Z,101740.69
2023-03-16T12:20:53.584Z,101741.94
2023-03-16T12:23:33.030Z,101744.94
2023-03-16T12:26:04.917Z,101733.47
2023-03-16T12:28:34.330Z,101734.00
2023-03-16T12:31:13.513Z,101718.72
2023-03-16T12:33:54.216Z,101718.09
2023-03-16T12:36:52.246Z,101719.03
2023-03-16T12:39:31.131Z,101709.38
2023-03-16T12:42:10.292Z,101717.84
2023-03-16T12:44:48.547Z,101706.47
2023-03-16T12:47:24.051Z,101700.09
2023-03-16T12:49:53.043Z,101688.53
2023-03-16T12:52:21.572Z,101688.00
2023-03-16T12:54:54.987Z,101673.84
2023-03-16T12:57:27.110Z,101690.06
2023-03-16T13:00:02.234Z,101675.66
2023-03-16T13:02:32.941Z,101678.34
2023-03-16T13:05:02.956Z,101672.16
2023-03-16T13:07:33.401Z,101667.63
2023-03-16T13:10:09.058Z,101667.94
2023-03-16T13:12:40.075Z,101659.97
2023-03-16T13:15:31.719Z,101652.59
2023-03-16T13:18:23.981Z,101650.97
2023-03-16T13:21:09.131Z,101655.53
2023-03-16T13:23:54.564Z,101647.72
2023-03-16T13:26:42.425Z,101647.00
2023-03-16T13:29:25.928Z,101644.72
2023-03-16T13:31:57.987Z,101638.00
2023-03-16T13:34:30.690Z,101632.69
2023-03-16T13:37:02.002Z,101632.75
2023-03-16T13:39:31.680Z,101631.59
2023-03-16T13:42:03.589Z,101637.00
2023-03-16T13:44:35.252Z,101634.97
2023-03-16T13:47:08.648Z,101636.81
2023-03-16T13:49:44.835Z,101620.47
2023-03-16T13:52:27.976Z,101633.66
2023-03-16T13:54:57.521Z,101629.09
2023-03-16T13:57:29.750Z,101627.91
2023-03-16T14:00:05.811Z,101618.81
2023-03-16T14:02:42.579Z,101620.78
2023-03-16T14:05:13.164Z,101613.66
2023-03-16T14:07:40.999Z,101608.31
2023-03-16T14:10:12.616Z,101608.84
2023-03-16T14:12:40.780Z,101593.38
2023-03-16T14:15:10.241Z,101600.97
2023-03-16T14:17:39.789Z,101609.88
2023-03-16T14:20:16.189Z,101604.97
2023-03-16T14:22:44.379Z,101599.03
2023-03-16T14:25:22.180Z,101587.13
2023-03-16T14:27:57.937Z,101589.88
2023-03-16T14:30:28.125Z,101598.25
2023-03-16T14:32:59.789Z,101580.69
2023-03-16T14:35:30.352Z,101584.38
2023-03-16T14:38:23.499Z,101581.72
2023-03-16T14:40:56.648Z,101569.00
2023-03-16T14:43:32.799Z,101575.69
2023-03-16T14:46:01.725Z,101561.31
2023-03-16T14:48:31.948Z,101558.09
2023-03-16T14:51:02.198Z,101557.84
2023-03-16T14:53:30.937Z,101548.66
2023-03-16T14:56:00.291Z,101537.13
2023-03-16T14:58:30.673Z,101540.03
2023-03-16T15:01:01.774Z,101526.28
2023-03-16T15:03:36.445Z,101530.63
2023-03-16T15:06:07.712Z,101528.03
2023-03-16T15:08:43.598Z,101527.38
2023-03-16T15:11:12.002Z,101528.16
2023-03-16T15:14:04.415Z,101526.13
2023-03-16T15:16:32.876Z,101525.88
2023-03-16T15:19:02.220Z,101522.22
2023-03-16T15:21:36.111Z,101512.78
2023-03-16T15:24:04.269Z,101517.50
2023-03-16T15:26:32.882Z,101507.16
2023-03-16T15:29:03.071Z,101509.41
2023-03-16T15:31:33.306Z,101500.53
2023-03-16T15:34:02.825Z,101495.63
2023-03-16T15:36:31.199Z,101502.13
2023-03-16T15:39:01.790Z,101494.78
2023-03-16T15:41:38.175Z,101496.63
2023-03-16T15:44:14.438Z,101490.94
2023-03-16T15:46:42.699Z,101504.25
2023-03-16T15:49:12.251Z,101505.66
2023-03-16T15:51:42.570Z,101500.53
2023-03-16T15:54:13.281Z,101490.94
2023-03-16T15:56:53.784Z,101490.25
2023-03-16T15:59:23.584Z,101487.19
2023-03-16T16:01:52.900Z,101498.56
2023-03-16T16:04:25.197Z,101497.78
2023-03-16T16:06:56.047Z,101492.91
2023-03-16T16:09:24.807Z,101484.84
2023-03-16T16:11:53.043Z,101485.22
2023-03-16T16:14:26.629Z,101477.22
2023-03-16T16:16:55.902Z,101476.34
2023-03-16T16:19:25.577Z,101473.22
2023-03-16T16:21:53.997Z,101474.63
2023-03-16T16:24:22.589Z,101478.59
2023-03-16T16:26:55.610Z,101488.34
2023-03-16T16:29:25.342Z,101483.00
2023-03-16T16:31:53.485Z,101487.19
2023-03-16T16:34:24.687Z,101489.34
2023-03-16T16:36:54.685Z,101496.88
2023-03-16T16:39:23.074Z,101485.69
2023-03-16T16:41:54.804Z,101488.28
2023-03-16T16:44:25.536Z,101488.19
2023-03-16T16:46:54.097Z,101494.13
2023-03-16T16:49:24.974Z,101482.41
2023-03-16T16:51:55.486Z,101475.47
2023-03-16T16:54:25.268Z,101473.25
2023-03-16T16:56:56.329Z,101484.03
2023-03-16T16:59:27.354Z,101473.75
2023-03-16T17:01:56.612Z,101469.81
2023-03-16T17:04:27.242Z,101462.09
2023-03-16T17:06:59.067Z,101457.72
2023-03-16T17:09:28.603Z,101456.69
2023-03-16T17:11:59.038Z,101458.34
2023-03-16T17:14:28.796Z,101454.03
2023-03-16T17:16:57.466Z,101453.22
2023-03-16T17:19:27.855Z,101454.75
2023-03-16T17:21:59.235Z,101445.28
2023-03-16T17:24:28.823Z,101453.50
2023-03-16T17:26:59.435Z,101450.31
2023-03-16T17:29:30.262Z,101450.47
2023-03-16T17:31:59.662Z,101462.81
2023-03-16T17:34:31.004Z,101449.50
2023-03-16T17:37:00.571Z,101473.34
2023-03-16T17:39:30.730Z,101468.66
2023-03-16T17:42:00.452Z,101468.06
2023-03-16T17:44:33.154Z,101469.28
2023-03-16T17:47:01.381Z,101465.97
2023-03-16T17:49:30.778Z,101467.41
2023-03-16T17:52:00.678Z,101464.22
2023-03-16T17:54:28.979Z,101464.75
2023-03-16T17:56:57.051Z,101457.34
2023-03-16T17:59:24.968Z,101445.34
2023-03-16T18:01:53.109Z,101439.38
2023-03-16T18:04:22.792Z,101435.22
2023-03-16T18:06:51.572Z,101441.25
2023-03-16T18:09:21.654Z,101435.59
2023-03-16T18:11:51.758Z,101428.25
2023-03-16T18:14:35.332Z,101424.88
2023-03-16T18:17:05.462Z,101426.97
2023-03-16T18:19:33.700Z,101429.09
2023-03-16T18:22:04.230Z,101426.44
2023-03-16T18:24:33.941Z,101414.38
2023-03-16T18:27:01.948Z,101415.22
2023-03-16T18:29:30.376Z,101418.84
2023-03-16T18:31:59.363Z,101408.25
2023-03-16T18:34:36.295Z,101408.00
2023-03-16T18:37:06.335Z,101412.31
2023-03-16T18:39:35.772Z,101417.66
2023-03-16T18:42:03.937Z,101412.31
2023-03-16T18:44:33.030Z,101413.84
2023-03-16T18:47:04.398Z,101413.13
2023-03-16T18:49:35.222Z,101411.53
2023-03-16T18:52:04.794Z,101408.88
2023-03-16T18:54:36.807Z,101407.41
2023-03-16T18:57:06.891Z,101397.78
2023-03-16T18:59:34.784Z,101409.13
2023-03-16T19:02:03.266Z,101402.78
2023-03-16T19:04:32.855Z,101396.31
2023-03-16T19:07:01.248Z,101397.91
2023-03-16T19:09:31.230Z,101397.66
2023-03-16T19:12:00.424Z,101389.72
2023-03-16T19:14:32.022Z,101394.38
2023-03-16T19:17:00.305Z,101385.19
2023-03-16T19:19:28.533Z,101384.78
2023-03-16T19:21:59.538Z,101381.31
2023-03-16T19:24:30.119Z,101376.91
2023-03-16T19:26:58.873Z,101376.72
2023-03-16T19:29:37.235Z,101373.84
2023-03-16T19:32:05.709Z,101386.97
2023-03-16T19:34:33.818Z,101383.91
2023-03-16T19:37:01.873Z,101379.47
2023-03-16T19:39:29.825Z,101375.59
2023-03-16T19:41:59.528Z,101366.00
2023-03-16T19:44:29.837Z,101365.38
2023-03-16T19:46:59.173Z,101372.38
2023-03-16T19:49:33.867Z,101361.19
2023-03-16T19:52:02.310Z,101357.72
2023-03-16T19:54:33.521Z,101354.84
2023-03-16T19:57:08.013Z,101345.41
2023-03-16T19:59:41.845Z,101352.53
2023-03-16T20:02:25.164Z,101354.19
2023-03-16T20:04:53.336Z,101352.47
2023-03-16T20:07:22.086Z,101347.00
2023-03-16T20:09:50.879Z,101346.22
2023-03-16T20:12:24.038Z,101340.75
2023-03-16T20:14:54.288Z,101341.84
2023-03-16T20:17:24.554Z,101346.47
2023-03-16T20:19:53.815Z,101343.03
2023-03-16T20:22:23.353Z,101344.38
2023-03-16T20:24:51.493Z,101342.44
2023-03-16T20:27:20.457Z,101328.22
2023-03-16T20:32:43.214Z,101330.53
2023-03-16T20:35:28.101Z,101308.47
2023-03-16T20:37:59.579Z,101320.38
2023-03-16T20:40:28.585Z,101319.25
2023-03-16T20:42:58.988Z,101308.94
2023-03-16T20:45:32.047Z,101305.63
2023-03-16T20:48:01.801Z,101313.38
2023-03-16T20:50:31.906Z,101308.50
2023-03-16T20:53:00.020Z,101299.59
2023-03-16T20:55:30.161Z,101295.00
2023-03-16T20:58:02.966Z,101303.84
2023-03-16T21:00:33.387Z,101292.13
2023-03-16T21:03:05.639Z,101286.94
2023-03-16T21:05:33.936Z,101289.09
2023-03-16T21:08:01.881Z,101276.53
2023-03-16T21:10:32.067Z,101282.63
2023-03-16T21:12:59.900Z,101257.22
2023-03-16T21:15:30.669Z,101256.81
2023-03-16T21:18:01.326Z,101247.31
2023-03-16T21:20:33.076Z,101260.69
2023-03-16T21:23:01.455Z,101262.94
2023-03-16T21:25:32.732Z,101271.84
2023-03-16T21:28:03.966Z,101258.56
2023-03-16T21:30:34.964Z,101265.91
2023-03-16T21:33:04.119Z,101252.06
2023-03-16T21:35:38.382Z,101245.00
2023-03-16T21:38:14.578Z,101236.53
2023-03-16T21:40:52.819Z,101245.16
2023-03-16T21:43:27.129Z,101235.31
2023-03-16T21:45:57.520Z,101236.19
2023-03-16T21:48:33.125Z,101237.03
2023-03-16T21:51:02.694Z,101243.88
2023-03-16T21:53:33.410Z,101239.25
2023-03-16T21:56:01.366Z,101237.00
2023-03-16T21:58:29.359Z,101238.31
2023-03-16T22:00:58.517Z,101245.16
2023-03-16T22:03:44.212Z,101250.06
2023-03-16T22:06:19.265Z,101237.22
2023-03-16T22:08:47.364Z,101239.69
2023-03-16T22:11:17.428Z,101231.84
2023-03-16T22:13:46.626Z,101225.16
2023-03-16T22:16:17.393Z,101231.72
2023-03-16T22:18:47.219Z,101229.75
2023-03-16T22:21:30.758Z,101230.59
2023-03-16T22:24:02.079Z,101220.31
2023-03-16T22:26:31.062Z,101230.16
2023-03-16T22:29:01.768Z,101223.91
2023-03-16T22:31:34.242Z,101228.06
2023-03-16T22:34:03.715Z,101233.56
2023-03-16T22:36:34.881Z,101223.50
2023-03-16T22:39:05.522Z,101224.13
2023-03-16T22:41:36.939Z,101218.91
2023-03-16T22:44:05.093Z,101224.09
2023-03-16T22:46:32.953Z,101213.81
2023-03-16T22:49:00.945Z,101215.75
2023-03-16T22:51:36.547Z,101211.94
2023-03-16T22:54:07.006Z,101207.16
2023-03-16T22:56:36.968Z,101200.06
2023-03-16T22:59:12.767Z,101198.34
2023-03-16T23:01:42.899Z,101199.84
2023-03-16T23:04:15.931Z,101195.25
2023-03-16T23:06:45.250Z,101187.53
2023-03-16T23:09:15.447Z,101183.19
2023-03-16T23:11:47.284Z,101183.59
2023-03-16T23:14:17.010Z,101176.84
2023-03-16T23:16:45.807Z,101176.66
2023-03-16T23:19:25.103Z,101171.34
2023-03-16T23:21:57.039Z,101167.16
2023-03-16T23:24:25.474Z,101162.06
2023-03-16T23:26:55.183Z,101154.16
2023-03-16T23:29:24.270Z,101147.47
2023-03-16T23:31:53.887Z,101153.47
2023-03-16T23:34:24.085Z,101160.50
2023-03-16T23:36:52.702Z,101158.81
2023-03-16T23:39:22.056Z,101149.81
2023-03-16T23:41:51.319Z,101157.69
2023-03-16T23:44:22.465Z,101155.59
2023-03-16T23:46:50.853Z,101156.47
2023-03-16T23:49:21.554Z,101148.44
2023-03-16T23:51:49.661Z,101141.75
2023-03-16T23:54:20.728Z,101144.50
2023-03-16T23:56:50.139Z,101131.91
2023-03-16T23:59:19.276Z,101137.03
